sensor_id;sensor_type;location;lat;lon;timestamp;P1;durP1;ratioP1;P2;durP2;ratioP2
76599;SDS011;65489;52.048;6.090;2023-09-12T00:00:03;4.88;;;3.78;;
76599;SDS011;65489;52.048;6.090;2023-09-12T00:02:37;4.07;;;3.67;;
76599;SDS011;65489;52.048;6.090;2023-09-12T00:05:03;5.05;;;3.72;;
76599;SDS011;65489;52.048;6.090;2023-09-12T00:07:30;4.95;;;3.30;;
76599;SDS011;65489;52.048;6.090;2023-09-12T00:09:55;4.40;;;3.42;;
76599;SDS011;65489;52.048;6.090;2023-09-12T00:12:22;3.78;;;3.38;;
76599;SDS011;65489;52.048;6.090;2023-09-12T00:14:48;5.23;;;3.67;;
76599;SDS011;65489;52.048;6.090;2023-09-12T00:17:14;3.63;;;3.33;;
76599;SDS011;65489;52.048;6.090;2023-09-12T00:19:39;4.00;;;3.60;;
76599;SDS011;65489;52.048;6.090;2023-09-12T00:22:05;4.38;;;3.72;;
76599;SDS011;65489;52.048;6.090;2023-09-12T00:24:30;4.30;;;3.80;;
76599;SDS011;65489;52.048;6.090;2023-09-12T00:26:56;5.38;;;3.97;;
76599;SDS011;65489;52.048;6.090;2023-09-12T00:29:21;4.20;;;3.80;;
76599;SDS011;65489;52.048;6.090;2023-09-12T00:31:46;4.18;;;3.80;;
76599;SDS011;65489;52.048;6.090;2023-09-12T00:34:15;4.18;;;3.78;;
76599;SDS011;65489;52.048;6.090;2023-09-12T00:36:42;4.50;;;3.80;;
76599;SDS011;65489;52.048;6.090;2023-09-12T00:39:07;4.40;;;4.00;;
76599;SDS011;65489;52.048;6.090;2023-09-12T00:41:33;4.25;;;3.85;;
76599;SDS011;65489;52.048;6.090;2023-09-12T00:43:58;3.60;;;3.30;;
76599;SDS011;65489;52.048;6.090;2023-09-12T00:46:24;4.30;;;3.90;;
76599;SDS011;65489;52.048;6.090;2023-09-12T00:48:49;3.97;;;3.47;;
76599;SDS011;65489;52.048;6.090;2023-09-12T00:51:16;4.25;;;3.85;;
76599;SDS011;65489;52.048;6.090;2023-09-12T00:53:42;4.50;;;3.70;;
76599;SDS011;65489;52.048;6.090;2023-09-12T00:56:08;4.10;;;3.72;;
76599;SDS011;65489;52.048;6.090;2023-09-12T00:58:33;4.97;;;4.10;;
76599;SDS011;65489;52.048;6.090;2023-09-12T01:00:59;4.28;;;3.88;;
76599;SDS011;65489;52.048;6.090;2023-09-12T01:03:24;4.47;;;3.67;;
76599;SDS011;65489;52.048;6.090;2023-09-12T01:05:50;4.15;;;3.75;;
76599;SDS011;65489;52.048;6.090;2023-09-12T01:08:16;4.68;;;4.07;;
76599;SDS011;65489;52.048;6.090;2023-09-12T01:10:42;4.32;;;3.92;;
76599;SDS011;65489;52.048;6.090;2023-09-12T01:13:11;6.05;;;4.13;;
76599;SDS011;65489;52.048;6.090;2023-09-12T01:15:38;4.60;;;4.05;;
76599;SDS011;65489;52.048;6.090;2023-09-12T01:18:04;4.22;;;3.40;;
76599;SDS011;65489;52.048;6.090;2023-09-12T01:20:33;4.55;;;4.00;;
76599;SDS011;65489;52.048;6.090;2023-09-12T01:28:24;4.55;;;3.95;;
76599;SDS011;65489;52.048;6.090;2023-09-12T01:30:51;4.57;;;3.88;;
76599;SDS011;65489;52.048;6.090;2023-09-12T01:33:17;3.97;;;3.58;;
76599;SDS011;65489;52.048;6.090;2023-09-12T01:35:42;4.07;;;3.67;;
76599;SDS011;65489;52.048;6.090;2023-09-12T01:38:08;4.57;;;4.00;;
76599;SDS011;65489;52.048;6.090;2023-09-12T01:40:38;4.07;;;3.65;;
76599;SDS011;65489;52.048;6.090;2023-09-12T01:43:14;4.70;;;4.07;;
76599;SDS011;65489;52.048;6.090;2023-09-12T01:48:07;3.83;;;3.42;;
76599;SDS011;65489;52.048;6.090;2023-09-12T01:50:33;4.25;;;3.92;;
76599;SDS011;65489;52.048;6.090;2023-09-12T01:52:59;5.20;;;4.00;;
76599;SDS011;65489;52.048;6.090;2023-09-12T01:55:25;5.00;;;3.92;;
76599;SDS011;65489;52.048;6.090;2023-09-12T01:57:51;4.72;;;4.13;;
76599;SDS011;65489;52.048;6.090;2023-09-12T02:00:18;5.00;;;3.75;;
76599;SDS011;65489;52.048;6.090;2023-09-12T02:02:45;4.57;;;4.18;;
76599;SDS011;65489;52.048;6.090;2023-09-12T02:05:20;4.75;;;3.85;;
76599;SDS011;65489;52.048;6.090;2023-09-12T02:07:46;4.82;;;3.60;;
76599;SDS011;65489;52.048;6.090;2023-09-12T02:10:12;4.32;;;3.92;;
76599;SDS011;65489;52.048;6.090;2023-09-12T02:12:38;4.72;;;4.00;;
76599;SDS011;65489;52.048;6.090;2023-09-12T02:15:03;4.35;;;3.92;;
76599;SDS011;65489;52.048;6.090;2023-09-12T02:17:29;4.25;;;3.75;;
76599;SDS011;65489;52.048;6.090;2023-09-12T02:19:55;5.50;;;4.03;;
76599;SDS011;65489;52.048;6.090;2023-09-12T02:22:20;5.40;;;4.00;;
76599;SDS011;65489;52.048;6.090;2023-09-12T02:24:46;4.45;;;4.05;;
76599;SDS011;65489;52.048;6.090;2023-09-12T02:27:11;4.13;;;3.72;;
76599;SDS011;65489;52.048;6.090;2023-09-12T02:29:38;4.47;;;4.07;;
76599;SDS011;65489;52.048;6.090;2023-09-12T02:32:04;3.58;;;3.28;;
76599;SDS011;65489;52.048;6.090;2023-09-12T02:34:30;4.03;;;3.60;;
76599;SDS011;65489;52.048;6.090;2023-09-12T02:36:55;4.45;;;3.90;;
76599;SDS011;65489;52.048;6.090;2023-09-12T02:39:21;3.85;;;3.45;;
76599;SDS011;65489;52.048;6.090;2023-09-12T02:41:46;4.10;;;3.70;;
76599;SDS011;65489;52.048;6.090;2023-09-12T02:44:12;4.97;;;4.05;;
76599;SDS011;65489;52.048;6.090;2023-09-12T02:46:37;4.40;;;4.00;;
76599;SDS011;65489;52.048;6.090;2023-09-12T02:49:03;4.15;;;3.67;;
76599;SDS011;65489;52.048;6.090;2023-09-12T02:51:28;4.10;;;3.70;;
76599;SDS011;65489;52.048;6.090;2023-09-12T02:53:54;4.15;;;3.42;;
76599;SDS011;65489;52.048;6.090;2023-09-12T02:56:20;4.82;;;4.15;;
76599;SDS011;65489;52.048;6.090;2023-09-12T02:58:46;4.07;;;3.70;;
76599;SDS011;65489;52.048;6.090;2023-09-12T03:01:15;4.57;;;3.97;;
76599;SDS011;65489;52.048;6.090;2023-09-12T03:03:48;4.22;;;3.83;;
76599;SDS011;65489;52.048;6.090;2023-09-12T03:06:14;5.70;;;3.90;;
76599;SDS011;65489;52.048;6.090;2023-09-12T03:08:40;4.18;;;3.58;;
76599;SDS011;65489;52.048;6.090;2023-09-12T03:11:06;3.53;;;3.22;;
76599;SDS011;65489;52.048;6.090;2023-09-12T03:13:33;3.97;;;3.58;;
76599;SDS011;65489;52.048;6.090;2023-09-12T03:15:59;4.05;;;3.65;;
76599;SDS011;65489;52.048;6.090;2023-09-12T03:18:27;4.15;;;3.75;;
76599;SDS011;65489;52.048;6.090;2023-09-12T03:20:53;4.22;;;3.83;;
76599;SDS011;65489;52.048;6.090;2023-09-12T03:23:19;3.50;;;3.20;;
76599;SDS011;65489;52.048;6.090;2023-09-12T03:25:45;5.22;;;3.67;;
76599;SDS011;65489;52.048;6.090;2023-09-12T03:28:11;3.90;;;3.55;;
76599;SDS011;65489;52.048;6.090;2023-09-12T03:30:37;3.90;;;3.53;;
76599;SDS011;65489;52.048;6.090;2023-09-12T03:33:03;4.38;;;3.97;;
76599;SDS011;65489;52.048;6.090;2023-09-12T03:35:29;4.40;;;3.60;;
76599;SDS011;65489;52.048;6.090;2023-09-12T03:37:55;4.45;;;3.67;;
76599;SDS011;65489;52.048;6.090;2023-09-12T03:40:20;3.60;;;3.30;;
76599;SDS011;65489;52.048;6.090;2023-09-12T03:42:46;3.78;;;3.47;;
76599;SDS011;65489;52.048;6.090;2023-09-12T03:45:11;3.75;;;3.45;;
76599;SDS011;65489;52.048;6.090;2023-09-12T03:47:37;3.85;;;3.33;;
76599;SDS011;65489;52.048;6.090;2023-09-12T03:50:03;3.75;;;3.35;;
76599;SDS011;65489;52.048;6.090;2023-09-12T03:52:29;4.15;;;3.47;;
76599;SDS011;65489;52.048;6.090;2023-09-12T03:54:54;4.05;;;3.65;;
76599;SDS011;65489;52.048;6.090;2023-09-12T03:57:20;4.15;;;3.33;;
76599;SDS011;65489;52.048;6.090;2023-09-12T03:59:45;4.47;;;3.72;;
76599;SDS011;65489;52.048;6.090;2023-09-12T04:02:12;4.10;;;3.58;;
76599;SDS011;65489;52.048;6.090;2023-09-12T04:04:37;3.65;;;3.35;;
76599;SDS011;65489;52.048;6.090;2023-09-12T04:07:03;4.05;;;3.38;;
76599;SDS011;65489;52.048;6.090;2023-09-12T04:09:29;3.92;;;3.58;;
76599;SDS011;65489;52.048;6.090;2023-09-12T04:11:55;3.70;;;3.40;;
76599;SDS011;65489;52.048;6.090;2023-09-12T04:14:20;4.88;;;3.42;;
76599;SDS011;65489;52.048;6.090;2023-09-12T04:16:46;4.20;;;3.35;;
76599;SDS011;65489;52.048;6.090;2023-09-12T04:19:13;3.88;;;3.47;;
76599;SDS011;65489;52.048;6.090;2023-09-12T04:21:39;3.67;;;3.38;;
76599;SDS011;65489;52.048;6.090;2023-09-12T04:24:05;3.95;;;3.58;;
76599;SDS011;65489;52.048;6.090;2023-09-12T04:26:31;3.60;;;3.30;;
76599;SDS011;65489;52.048;6.090;2023-09-12T04:28:56;4.72;;;3.75;;
76599;SDS011;65489;52.048;6.090;2023-09-12T04:31:22;4.70;;;3.50;;
76599;SDS011;65489;52.048;6.090;2023-09-12T04:33:50;3.72;;;3.20;;
76599;SDS011;65489;52.048;6.090;2023-09-12T04:36:16;3.38;;;3.08;;
76599;SDS011;65489;52.048;6.090;2023-09-12T04:38:42;3.80;;;3.40;;
76599;SDS011;65489;52.048;6.090;2023-09-12T04:41:08;3.50;;;3.20;;
76599;SDS011;65489;52.048;6.090;2023-09-12T04:43:35;4.63;;;3.47;;
76599;SDS011;65489;52.048;6.090;2023-09-12T04:46:00;3.80;;;3.50;;
76599;SDS011;65489;52.048;6.090;2023-09-12T04:48:27;3.47;;;3.17;;
76599;SDS011;65489;52.048;6.090;2023-09-12T04:50:52;3.63;;;3.33;;
76599;SDS011;65489;52.048;6.090;2023-09-12T04:53:18;3.78;;;3.47;;
76599;SDS011;65489;52.048;6.090;2023-09-12T04:55:43;3.45;;;2.95;;
76599;SDS011;65489;52.048;6.090;2023-09-12T04:58:09;3.60;;;3.13;;
76599;SDS011;65489;52.048;6.090;2023-09-12T05:00:34;3.50;;;3.20;;
76599;SDS011;65489;52.048;6.090;2023-09-12T05:03:01;3.63;;;3.33;;
76599;SDS011;65489;52.048;6.090;2023-09-12T05:05:27;4.50;;;3.67;;
76599;SDS011;65489;52.048;6.090;2023-09-12T05:07:53;3.58;;;3.17;;
76599;SDS011;65489;52.048;6.090;2023-09-12T05:10:18;3.60;;;3.30;;
76599;SDS011;65489;52.048;6.090;2023-09-12T05:12:44;3.72;;;3.38;;
76599;SDS011;65489;52.048;6.090;2023-09-12T05:15:10;4.32;;;3.45;;
76599;SDS011;65489;52.048;6.090;2023-09-12T05:17:35;3.75;;;3.22;;
76599;SDS011;65489;52.048;6.090;2023-09-12T05:20:01;3.58;;;3.15;;
76599;SDS011;65489;52.048;6.090;2023-09-12T05:22:30;3.65;;;3.20;;
76599;SDS011;65489;52.048;6.090;2023-09-12T05:24:55;3.42;;;3.13;;
76599;SDS011;65489;52.048;6.090;2023-09-12T05:27:21;4.45;;;3.22;;
76599;SDS011;65489;52.048;6.090;2023-09-12T05:29:46;5.40;;;3.28;;
76599;SDS011;65489;52.048;6.090;2023-09-12T05:32:12;3.97;;;3.10;;
76599;SDS011;65489;52.048;6.090;2023-09-12T05:34:37;4.20;;;3.30;;
76599;SDS011;65489;52.048;6.090;2023-09-12T05:37:03;3.35;;;3.05;;
76599;SDS011;65489;52.048;6.090;2023-09-12T05:39:28;3.53;;;3.05;;
76599;SDS011;65489;52.048;6.090;2023-09-12T05:41:54;3.50;;;3.20;;
76599;SDS011;65489;52.048;6.090;2023-09-12T05:44:19;3.42;;;3.13;;
76599;SDS011;65489;52.048;6.090;2023-09-12T05:46:45;3.08;;;2.78;;
76599;SDS011;65489;52.048;6.090;2023-09-12T05:49:12;3.30;;;3.10;;
76599;SDS011;65489;52.048;6.090;2023-09-12T05:51:37;3.33;;;3.00;;
76599;SDS011;65489;52.048;6.090;2023-09-12T05:54:03;3.17;;;2.88;;
76599;SDS011;65489;52.048;6.090;2023-09-12T05:56:28;4.13;;;2.85;;
76599;SDS011;65489;52.048;6.090;2023-09-12T05:58:54;3.95;;;3.13;;
76599;SDS011;65489;52.048;6.090;2023-09-12T06:01:19;3.90;;;3.35;;
76599;SDS011;65489;52.048;6.090;2023-09-12T06:03:45;3.00;;;2.70;;
76599;SDS011;65489;52.048;6.090;2023-09-12T06:06:10;3.25;;;2.90;;
76599;SDS011;65489;52.048;6.090;2023-09-12T06:08:36;3.78;;;2.92;;
76599;SDS011;65489;52.048;6.090;2023-09-12T06:11:02;2.95;;;2.75;;
76599;SDS011;65489;52.048;6.090;2023-09-12T06:13:28;3.20;;;2.90;;
76599;SDS011;65489;52.048;6.090;2023-09-12T06:15:53;2.83;;;2.60;;
76599;SDS011;65489;52.048;6.090;2023-09-12T06:18:18;2.83;;;2.63;;
76599;SDS011;65489;52.048;6.090;2023-09-12T06:20:44;3.30;;;2.85;;
76599;SDS011;65489;52.048;6.090;2023-09-12T06:23:10;3.03;;;2.75;;
76599;SDS011;65489;52.048;6.090;2023-09-12T06:25:35;2.97;;;2.67;;
76599;SDS011;65489;52.048;6.090;2023-09-12T06:28:01;3.05;;;2.83;;
76599;SDS011;65489;52.048;6.090;2023-09-12T06:30:26;2.95;;;2.75;;
76599;SDS011;65489;52.048;6.090;2023-09-12T06:32:52;3.03;;;2.80;;
76599;SDS011;65489;52.048;6.090;2023-09-12T06:35:17;3.30;;;2.67;;
76599;SDS011;65489;52.048;6.090;2023-09-12T06:37:43;2.90;;;2.70;;
76599;SDS011;65489;52.048;6.090;2023-09-12T06:40:09;3.05;;;2.83;;
76599;SDS011;65489;52.048;6.090;2023-09-12T06:42:34;2.80;;;2.60;;
76599;SDS011;65489;52.048;6.090;2023-09-12T06:45:00;3.10;;;2.80;;
76599;SDS011;65489;52.048;6.090;2023-09-12T06:47:25;3.05;;;2.85;;
76599;SDS011;65489;52.048;6.090;2023-09-12T06:49:51;2.97;;;2.67;;
76599;SDS011;65489;52.048;6.090;2023-09-12T06:52:16;2.72;;;2.53;;
76599;SDS011;65489;52.048;6.090;2023-09-12T06:54:42;3.13;;;2.83;;
76599;SDS011;65489;52.048;6.090;2023-09-12T06:57:07;4.38;;;3.10;;
76599;SDS011;65489;52.048;6.090;2023-09-12T06:59:33;4.32;;;3.10;;
76599;SDS011;65489;52.048;6.090;2023-09-12T07:01:58;3.53;;;3.13;;
76599;SDS011;65489;52.048;6.090;2023-09-12T07:04:24;4.30;;;3.53;;
76599;SDS011;65489;52.048;6.090;2023-09-12T07:06:50;5.63;;;3.35;;
76599;SDS011;65489;52.048;6.090;2023-09-12T07:09:16;7.43;;;3.60;;
76599;SDS011;65489;52.048;6.090;2023-09-12T07:11:42;6.55;;;3.65;;
76599;SDS011;65489;52.048;6.090;2023-09-12T07:14:08;6.85;;;3.60;;
76599;SDS011;65489;52.048;6.090;2023-09-12T07:16:35;11.15;;;4.00;;
76599;SDS011;65489;52.048;6.090;2023-09-12T07:19:00;6.00;;;4.05;;
76599;SDS011;65489;52.048;6.090;2023-09-12T07:21:26;7.82;;;3.75;;
76599;SDS011;65489;52.048;6.090;2023-09-12T07:23:51;10.45;;;4.40;;
76599;SDS011;65489;52.048;6.090;2023-09-12T07:26:17;10.02;;;6.22;;
76599;SDS011;65489;52.048;6.090;2023-09-12T07:28:42;13.13;;;8.45;;
76599;SDS011;65489;52.048;6.090;2023-09-12T07:31:08;14.23;;;8.55;;
76599;SDS011;65489;52.048;6.090;2023-09-12T07:33:34;14.63;;;8.35;;
76599;SDS011;65489;52.048;6.090;2023-09-12T07:35:59;11.55;;;7.93;;
76599;SDS011;65489;52.048;6.090;2023-09-12T07:38:28;14.03;;;10.07;;
76599;SDS011;65489;52.048;6.090;2023-09-12T07:40:54;14.23;;;9.38;;
76599;SDS011;65489;52.048;6.090;2023-09-12T07:43:20;14.27;;;11.13;;
76599;SDS011;65489;52.048;6.090;2023-09-12T07:45:46;15.15;;;10.48;;
76599;SDS011;65489;52.048;6.090;2023-09-12T07:48:12;15.35;;;10.98;;
76599;SDS011;65489;52.048;6.090;2023-09-12T07:50:37;15.25;;;11.52;;
76599;SDS011;65489;52.048;6.090;2023-09-12T07:53:06;12.98;;;9.75;;
76599;SDS011;65489;52.048;6.090;2023-09-12T07:58:13;12.52;;;8.23;;
76599;SDS011;65489;52.048;6.090;2023-09-12T08:00:39;13.20;;;9.73;;
76599;SDS011;65489;52.048;6.090;2023-09-12T08:03:05;13.02;;;9.77;;
76599;SDS011;65489;52.048;6.090;2023-09-12T08:05:31;13.07;;;9.60;;
76599;SDS011;65489;52.048;6.090;2023-09-12T08:07:56;15.38;;;10.90;;
76599;SDS011;65489;52.048;6.090;2023-09-12T08:10:25;17.55;;;11.80;;
76599;SDS011;65489;52.048;6.090;2023-09-12T08:12:51;10.02;;;8.05;;
76599;SDS011;65489;52.048;6.090;2023-09-12T08:15:17;13.80;;;9.77;;
76599;SDS011;65489;52.048;6.090;2023-09-12T08:17:42;14.80;;;10.13;;
76599;SDS011;65489;52.048;6.090;2023-09-12T08:20:08;13.43;;;9.95;;
76599;SDS011;65489;52.048;6.090;2023-09-12T08:25:02;13.07;;;7.97;;
76599;SDS011;65489;52.048;6.090;2023-09-12T08:27:28;11.88;;;8.70;;
76599;SDS011;65489;52.048;6.090;2023-09-12T08:29:53;13.23;;;9.40;;
76599;SDS011;65489;52.048;6.090;2023-09-12T08:32:19;14.15;;;10.50;;
76599;SDS011;65489;52.048;6.090;2023-09-12T08:34:45;13.23;;;9.30;;
76599;SDS011;65489;52.048;6.090;2023-09-12T08:37:10;14.63;;;11.02;;
76599;SDS011;65489;52.048;6.090;2023-09-12T08:39:42;11.65;;;8.73;;
76599;SDS011;65489;52.048;6.090;2023-09-12T08:42:11;13.57;;;9.63;;
76599;SDS011;65489;52.048;6.090;2023-09-12T08:44:38;11.85;;;9.40;;
76599;SDS011;65489;52.048;6.090;2023-09-12T08:47:05;12.30;;;9.93;;
76599;SDS011;65489;52.048;6.090;2023-09-12T08:49:33;15.27;;;10.52;;
76599;SDS011;65489;52.048;6.090;2023-09-12T08:52:00;12.35;;;9.43;;
76599;SDS011;65489;52.048;6.090;2023-09-12T08:54:25;11.27;;;8.77;;
76599;SDS011;65489;52.048;6.090;2023-09-12T08:56:51;11.05;;;8.32;;
76599;SDS011;65489;52.048;6.090;2023-09-12T08:59:16;9.43;;;7.20;;
76599;SDS011;65489;52.048;6.090;2023-09-12T09:01:42;8.88;;;7.57;;
76599;SDS011;65489;52.048;6.090;2023-09-12T09:04:08;10.98;;;7.95;;
76599;SDS011;65489;52.048;6.090;2023-09-12T09:06:34;10.57;;;8.10;;
76599;SDS011;65489;52.048;6.090;2023-09-12T09:09:02;9.55;;;7.15;;
76599;SDS011;65489;52.048;6.090;2023-09-12T09:11:29;10.38;;;6.97;;
76599;SDS011;65489;52.048;6.090;2023-09-12T09:13:55;11.30;;;8.30;;
76599;SDS011;65489;52.048;6.090;2023-09-12T09:16:21;10.88;;;7.78;;
76599;SDS011;65489;52.048;6.090;2023-09-12T09:23:57;7.72;;;6.05;;
76599;SDS011;65489;52.048;6.090;2023-09-12T09:26:24;8.65;;;7.22;;
76599;SDS011;65489;52.048;6.090;2023-09-12T09:31:48;11.00;;;7.10;;
76599;SDS011;65489;52.048;6.090;2023-09-12T09:34:20;7.38;;;5.22;;
76599;SDS011;65489;52.048;6.090;2023-09-12T09:36:47;9.00;;;6.40;;
76599;SDS011;65489;52.048;6.090;2023-09-12T09:39:18;5.32;;;4.82;;
76599;SDS011;65489;52.048;6.090;2023-09-12T09:41:48;8.25;;;5.53;;
76599;SDS011;65489;52.048;6.090;2023-09-12T09:44:14;6.53;;;5.20;;
76599;SDS011;65489;52.048;6.090;2023-09-12T09:46:42;6.25;;;5.25;;
76599;SDS011;65489;52.048;6.090;2023-09-12T09:49:15;8.57;;;5.25;;
76599;SDS011;65489;52.048;6.090;2023-09-12T09:51:41;7.18;;;5.45;;
76599;SDS011;65489;52.048;6.090;2023-09-12T09:56:50;6.15;;;4.55;;
76599;SDS011;65489;52.048;6.090;2023-09-12T09:59:20;4.93;;;4.32;;
76599;SDS011;65489;52.048;6.090;2023-09-12T10:01:48;5.95;;;4.80;;
76599;SDS011;65489;52.048;6.090;2023-09-12T10:04:14;5.60;;;4.50;;
76599;SDS011;65489;52.048;6.090;2023-09-12T10:06:42;5.00;;;4.28;;
76599;SDS011;65489;52.048;6.090;2023-09-12T10:09:10;4.28;;;3.83;;
76599;SDS011;65489;52.048;6.090;2023-09-12T10:11:37;7.18;;;4.93;;
76599;SDS011;65489;52.048;6.090;2023-09-12T10:14:04;5.38;;;4.75;;
76599;SDS011;65489;52.048;6.090;2023-09-12T10:21:44;5.35;;;4.80;;
76599;SDS011;65489;52.048;6.090;2023-09-12T10:24:15;6.03;;;4.88;;
76599;SDS011;65489;52.048;6.090;2023-09-12T10:26:41;7.93;;;5.57;;
76599;SDS011;65489;52.048;6.090;2023-09-12T10:29:13;5.18;;;4.45;;
76599;SDS011;65489;52.048;6.090;2023-09-12T10:31:42;4.70;;;3.72;;
76599;SDS011;65489;52.048;6.090;2023-09-12T10:34:08;4.68;;;3.60;;
76599;SDS011;65489;52.048;6.090;2023-09-12T10:36:36;5.45;;;4.38;;
76599;SDS011;65489;52.048;6.090;2023-09-12T10:39:07;4.78;;;3.42;;
76599;SDS011;65489;52.048;6.090;2023-09-12T10:41:33;4.38;;;3.90;;
76599;SDS011;65489;52.048;6.090;2023-09-12T10:44:10;7.13;;;5.70;;
76599;SDS011;65489;52.048;6.090;2023-09-12T10:46:39;7.57;;;6.57;;
76599;SDS011;65489;52.048;6.090;2023-09-12T10:49:06;5.85;;;5.03;;
76599;SDS011;65489;52.048;6.090;2023-09-12T10:51:33;7.00;;;5.43;;
76599;SDS011;65489;52.048;6.090;2023-09-12T10:54:03;4.93;;;3.92;;
76599;SDS011;65489;52.048;6.090;2023-09-12T10:56:29;5.95;;;4.68;;
76599;SDS011;65489;52.048;6.090;2023-09-12T11:01:35;9.25;;;6.28;;
76599;SDS011;65489;52.048;6.090;2023-09-12T11:06:48;9.77;;;6.57;;
76599;SDS011;65489;52.048;6.090;2023-09-12T11:11:43;3.92;;;3.45;;
76599;SDS011;65489;52.048;6.090;2023-09-12T11:14:11;4.97;;;4.38;;
76599;SDS011;65489;52.048;6.090;2023-09-12T11:16:38;5.13;;;4.40;;
76599;SDS011;65489;52.048;6.090;2023-09-12T11:19:20;5.05;;;4.18;;
76599;SDS011;65489;52.048;6.090;2023-09-12T11:21:54;4.47;;;3.60;;
76599;SDS011;65489;52.048;6.090;2023-09-12T11:24:21;5.63;;;3.90;;
76599;SDS011;65489;52.048;6.090;2023-09-12T11:29:22;5.13;;;4.22;;
76599;SDS011;65489;52.048;6.090;2023-09-12T11:31:57;5.30;;;3.83;;
76599;SDS011;65489;52.048;6.090;2023-09-12T11:34:26;4.65;;;3.85;;
76599;SDS011;65489;52.048;6.090;2023-09-12T11:36:57;3.45;;;3.15;;
76599;SDS011;65489;52.048;6.090;2023-09-12T11:39:32;4.07;;;3.53;;
76599;SDS011;65489;52.048;6.090;2023-09-12T11:41:58;5.10;;;3.50;;
76599;SDS011;65489;52.048;6.090;2023-09-12T11:44:26;5.10;;;4.22;;
76599;SDS011;65489;52.048;6.090;2023-09-12T11:46:52;6.38;;;3.92;;
76599;SDS011;65489;52.048;6.090;2023-09-12T11:49:18;3.92;;;3.15;;
76599;SDS011;65489;52.048;6.090;2023-09-12T11:51:51;5.55;;;3.03;;
76599;SDS011;65489;52.048;6.090;2023-09-12T11:54:18;3.70;;;3.25;;
76599;SDS011;65489;52.048;6.090;2023-09-12T11:56:46;2.90;;;2.60;;
76599;SDS011;65489;52.048;6.090;2023-09-12T11:59:13;4.40;;;3.55;;
76599;SDS011;65489;52.048;6.090;2023-09-12T12:01:41;3.58;;;3.28;;
76599;SDS011;65489;52.048;6.090;2023-09-12T12:04:09;3.40;;;2.92;;
76599;SDS011;65489;52.048;6.090;2023-09-12T12:06:34;3.83;;;3.20;;
76599;SDS011;65489;52.048;6.090;2023-09-12T12:09:03;4.40;;;3.60;;
76599;SDS011;65489;52.048;6.090;2023-09-12T12:11:29;3.25;;;2.95;;
76599;SDS011;65489;52.048;6.090;2023-09-12T12:13:56;3.10;;;2.80;;
76599;SDS011;65489;52.048;6.090;2023-09-12T12:16:21;4.13;;;3.50;;
76599;SDS011;65489;52.048;6.090;2023-09-12T12:18:47;3.88;;;3.47;;
76599;SDS011;65489;52.048;6.090;2023-09-12T12:21:14;3.85;;;3.33;;
76599;SDS011;65489;52.048;6.090;2023-09-12T12:23:40;3.92;;;3.10;;
76599;SDS011;65489;52.048;6.090;2023-09-12T12:26:11;4.75;;;3.22;;
76599;SDS011;65489;52.048;6.090;2023-09-12T12:28:38;3.00;;;2.70;;
76599;SDS011;65489;52.048;6.090;2023-09-12T12:31:03;3.67;;;3.13;;
76599;SDS011;65489;52.048;6.090;2023-09-12T12:33:29;4.10;;;3.45;;
76599;SDS011;65489;52.048;6.090;2023-09-12T12:36:01;3.83;;;3.03;;
76599;SDS011;65489;52.048;6.090;2023-09-12T12:38:27;4.40;;;3.55;;
76599;SDS011;65489;52.048;6.090;2023-09-12T12:43:21;3.78;;;2.75;;
76599;SDS011;65489;52.048;6.090;2023-09-12T12:45:54;3.30;;;3.00;;
76599;SDS011;65489;52.048;6.090;2023-09-12T12:48:30;3.83;;;3.13;;
76599;SDS011;65489;52.048;6.090;2023-09-12T12:50:56;4.80;;;3.38;;
76599;SDS011;65489;52.048;6.090;2023-09-12T12:53:40;3.72;;;2.88;;
76599;SDS011;65489;52.048;6.090;2023-09-12T12:56:07;3.00;;;2.65;;
76599;SDS011;65489;52.048;6.090;2023-09-12T12:58:44;3.90;;;3.50;;
76599;SDS011;65489;52.048;6.090;2023-09-12T13:01:33;4.38;;;3.17;;
76599;SDS011;65489;52.048;6.090;2023-09-12T13:03:59;3.38;;;2.85;;
76599;SDS011;65489;52.048;6.090;2023-09-12T13:06:26;3.40;;;2.88;;
76599;SDS011;65489;52.048;6.090;2023-09-12T13:08:53;4.65;;;3.05;;
76599;SDS011;65489;52.048;6.090;2023-09-12T13:11:18;3.72;;;3.33;;
76599;SDS011;65489;52.048;6.090;2023-09-12T13:13:45;4.18;;;3.35;;
76599;SDS011;65489;52.048;6.090;2023-09-12T13:16:12;3.85;;;3.13;;
76599;SDS011;65489;52.048;6.090;2023-09-12T13:18:42;4.57;;;3.40;;
76599;SDS011;65489;52.048;6.090;2023-09-12T13:21:07;6.45;;;3.88;;
76599;SDS011;65489;52.048;6.090;2023-09-12T13:23:33;3.58;;;3.20;;
76599;SDS011;65489;52.048;6.090;2023-09-12T13:26:00;4.72;;;3.17;;
76599;SDS011;65489;52.048;6.090;2023-09-12T13:28:26;3.08;;;2.78;;
76599;SDS011;65489;52.048;6.090;2023-09-12T13:30:54;4.30;;;3.35;;
76599;SDS011;65489;52.048;6.090;2023-09-12T13:33:20;4.20;;;3.17;;
76599;SDS011;65489;52.048;6.090;2023-09-12T13:35:49;3.78;;;3.33;;
76599;SDS011;65489;52.048;6.090;2023-09-12T13:38:15;3.33;;;2.90;;
76599;SDS011;65489;52.048;6.090;2023-09-12T13:40:43;3.20;;;2.85;;
76599;SDS011;65489;52.048;6.090;2023-09-12T13:43:09;3.47;;;3.17;;
76599;SDS011;65489;52.048;6.090;2023-09-12T13:45:34;5.00;;;3.38;;
76599;SDS011;65489;52.048;6.090;2023-09-12T13:48:00;4.25;;;3.70;;
76599;SDS011;65489;52.048;6.090;2023-09-12T13:50:30;3.03;;;2.72;;
76599;SDS011;65489;52.048;6.090;2023-09-12T13:52:59;4.25;;;3.13;;
76599;SDS011;65489;52.048;6.090;2023-09-12T13:55:28;3.05;;;2.75;;
76599;SDS011;65489;52.048;6.090;2023-09-12T13:57:54;3.85;;;3.15;;
76599;SDS011;65489;52.048;6.090;2023-09-12T14:00:20;4.97;;;3.28;;
76599;SDS011;65489;52.048;6.090;2023-09-12T14:02:45;2.83;;;2.47;;
76599;SDS011;65489;52.048;6.090;2023-09-12T14:05:14;2.40;;;2.20;;
76599;SDS011;65489;52.048;6.090;2023-09-12T14:07:39;5.38;;;2.80;;
76599;SDS011;65489;52.048;6.090;2023-09-12T14:10:08;3.65;;;2.90;;
76599;SDS011;65489;52.048;6.090;2023-09-12T14:12:34;3.53;;;3.10;;
76599;SDS011;65489;52.048;6.090;2023-09-12T14:15:00;3.40;;;3.10;;
76599;SDS011;65489;52.048;6.090;2023-09-12T14:17:25;3.03;;;2.72;;
76599;SDS011;65489;52.048;6.090;2023-09-12T14:19:52;5.40;;;3.88;;
76599;SDS011;65489;52.048;6.090;2023-09-12T14:22:17;5.07;;;3.60;;
76599;SDS011;65489;52.048;6.090;2023-09-12T14:24:43;3.67;;;2.88;;
76599;SDS011;65489;52.048;6.090;2023-09-12T14:27:08;5.47;;;3.20;;
76599;SDS011;65489;52.048;6.090;2023-09-12T14:29:34;3.55;;;2.95;;
76599;SDS011;65489;52.048;6.090;2023-09-12T14:31:59;2.63;;;2.42;;
76599;SDS011;65489;52.048;6.090;2023-09-12T14:34:25;2.63;;;2.35;;
76599;SDS011;65489;52.048;6.090;2023-09-12T14:36:57;3.97;;;2.67;;
76599;SDS011;65489;52.048;6.090;2023-09-12T14:39:23;3.85;;;2.80;;
76599;SDS011;65489;52.048;6.090;2023-09-12T14:41:49;2.85;;;2.50;;
76599;SDS011;65489;52.048;6.090;2023-09-12T14:44:17;2.90;;;2.60;;
76599;SDS011;65489;52.048;6.090;2023-09-12T14:46:43;2.90;;;2.40;;
76599;SDS011;65489;52.048;6.090;2023-09-12T14:49:09;4.47;;;2.53;;
76599;SDS011;65489;52.048;6.090;2023-09-12T14:51:35;2.88;;;2.63;;
76599;SDS011;65489;52.048;6.090;2023-09-12T14:54:04;4.97;;;2.63;;
76599;SDS011;65489;52.048;6.090;2023-09-12T14:56:30;2.97;;;2.67;;
76599;SDS011;65489;52.048;6.090;2023-09-12T14:58:58;3.85;;;2.58;;
76599;SDS011;65489;52.048;6.090;2023-09-12T15:01:24;4.20;;;2.40;;
76599;SDS011;65489;52.048;6.090;2023-09-12T15:03:50;4.32;;;2.50;;
76599;SDS011;65489;52.048;6.090;2023-09-12T15:06:18;5.13;;;2.75;;
76599;SDS011;65489;52.048;6.090;2023-09-12T15:08:44;3.88;;;2.80;;
76599;SDS011;65489;52.048;6.090;2023-09-12T15:11:09;3.75;;;2.65;;
76599;SDS011;65489;52.048;6.090;2023-09-12T15:13:35;3.35;;;2.80;;
76599;SDS011;65489;52.048;6.090;2023-09-12T15:16:01;2.90;;;2.50;;
76599;SDS011;65489;52.048;6.090;2023-09-12T15:18:27;5.05;;;2.53;;
76599;SDS011;65489;52.048;6.090;2023-09-12T15:20:52;2.53;;;2.33;;
76599;SDS011;65489;52.048;6.090;2023-09-12T15:23:18;2.80;;;2.50;;